PWSweather.com
Personal Weather Stations
Station Observations
KB2SBX
Sugarloaf, Sugarloaf, PA 18249

SugarloafSugarloaf, PA 18249

Lat: 41.0126685, Lon: -76.1082041

Elevation: 1030

Station Type: WS-2080

http://sugarloafpaweather.webng.com/weather.shtml

Latest ConditionsUpdated 10:50:00 PM EST Thursday, Mar 5, 2015
Currently Today's Max Today's Min Today's Average
Temperature 11.7°F-11.3°C 32.5°F0.3°C 11.7°F-11.3°C 20.9°F-6.2°C
Dew Point -5.5°F-20.8°C 29.3°F-1.5°C -5.5°F-20.8°C 8.7°F-12.9°C
Winds 0.9 mph WNW1.4 kmh WNW 3.1 mph N5.0 kmh N - 1.0 mph 1.6 kmh
Wind Gusts 6.0 mph9.7 kmh 11.4 mph18.3 kmh - -
Humidity 45% 91% 39% 61%
Pressure 30.50 in1032.8 mb 30.50 in1032.8 mb 30.05 in1017.6 mb -
Hour Temp Dew Point Humidity Winds Wind Gusts Pressure Precip Precip Rate Daily Precip Total
10:50 PM 11.7°F-11.3°C -5.5°F-20.8°C 45% 0.9 mph WNW1.4 kmh WNW 6.0 mph9.7 kmh 30.50 in1032.8 mb 0.00 in0.0 mm 0.00 in/hr0.0 mm/hr 0.00 in0.0 mm
10:40 PM 12.0°F-11.1°C -5.2°F-20.7°C 45% 1.6 mph NW2.6 kmh NW 5.4 mph8.7 kmh 30.50 in1032.8 mb 0.00 in0.0 mm 0.00 in/hr0.0 mm/hr 0.00 in0.0 mm
10:30 PM 12.0°F-11.1°C -5.2°F-20.7°C 45% 1.1 mph NW1.8 kmh NW 4.5 mph7.2 kmh 30.49 in1032.5 mb 0.00 in0.0 mm 0.00 in/hr0.0 mm/hr 0.00 in0.0 mm
10:20 PM 12.4°F-10.9°C -5.3°F-20.7°C 44% 1.4 mph S2.3 kmh S 4.5 mph7.2 kmh 30.49 in1032.5 mb 0.00 in0.0 mm 0.00 in/hr0.0 mm/hr 0.00 in0.0 mm
10:10 PM 12.2°F-11.0°C -5.0°F-20.6°C 45% 0.3 mph SW0.5 kmh SW 3.1 mph5.0 kmh 30.49 in1032.5 mb 0.00 in0.0 mm 0.00 in/hr0.0 mm/hr 0.00 in0.0 mm
10:00 PM 12.7°F-10.7°C -5.0°F-20.6°C 44% 0.7 mph SE1.1 kmh SE 4.5 mph7.2 kmh 30.48 in1032.2 mb 0.00 in0.0 mm 0.00 in/hr0.0 mm/hr 0.00 in0.0 mm
09:50 PM 13.3°F-10.4°C -4.5°F-20.3°C 44% 0.9 mph E1.4 kmh E 6.0 mph9.7 kmh 30.48 in1032.2 mb 0.00 in0.0 mm 0.00 in/hr0.0 mm/hr 0.00 in0.0 mm
09:40 PM 13.3°F-10.4°C -4.0°F-20.0°C 45% 0.2 mph N0.3 kmh N 3.8 mph6.1 kmh 30.48 in1032.2 mb 0.00 in0.0 mm 0.00 in/hr0.0 mm/hr 0.00 in0.0 mm
09:30 PM 14.0°F-10.0°C -4.3°F-20.2°C 43% 0.4 mph SE0.6 kmh SE 3.1 mph5.0 kmh 30.48 in1032.2 mb 0.00 in0.0 mm 0.00 in/hr0.0 mm/hr 0.00 in0.0 mm
09:20 PM 14.2°F-9.9°C -4.6°F-20.3°C 42% 1.5 mph E2.4 kmh E 8.3 mph13.4 kmh 30.47 in1031.8 mb 0.00 in0.0 mm 0.00 in/hr0.0 mm/hr 0.00 in0.0 mm
09:10 PM 14.4°F-9.8°C -4.0°F-20.0°C 43% 2.5 mph N4.0 kmh N 7.6 mph12.2 kmh 30.46 in1031.5 mb 0.00 in0.0 mm 0.00 in/hr0.0 mm/hr 0.00 in0.0 mm
09:00 PM 14.4°F-9.8°C -4.0°F-20.0°C 43% 3.1 mph N5.0 kmh N 7.6 mph12.2 kmh 30.45 in1031.2 mb 0.00 in0.0 mm 0.00 in/hr0.0 mm/hr 0.00 in0.0 mm
08:50 PM 14.5°F-9.7°C -3.3°F-19.6°C 44% 0.7 mph N1.1 kmh N 6.9 mph11.1 kmh 30.45 in1031.2 mb 0.00 in0.0 mm 0.00 in/hr0.0 mm/hr 0.00 in0.0 mm
08:40 PM 14.9°F-9.5°C -3.5°F-19.7°C 43% 0.8 mph NNE1.3 kmh NNE 5.4 mph8.7 kmh 30.44 in1030.8 mb 0.00 in0.0 mm 0.00 in/hr0.0 mm/hr 0.00 in0.0 mm
08:30 PM 15.1°F-9.4°C -3.3°F-19.6°C 43% 0.3 mph WSW0.5 kmh WSW 2.2 mph3.5 kmh 30.44 in1030.8 mb 0.00 in0.0 mm 0.00 in/hr0.0 mm/hr 0.00 in0.0 mm
08:20 PM 15.1°F-9.4°C -2.8°F-19.3°C 44% 0.8 mph NW1.3 kmh NW 3.8 mph6.1 kmh 30.43 in1030.5 mb 0.00 in0.0 mm 0.00 in/hr0.0 mm/hr 0.00 in0.0 mm
08:10 PM 15.1°F-9.4°C -2.8°F-19.3°C 44% 0.5 mph NNW0.8 kmh NNW 3.1 mph5.0 kmh 30.43 in1030.5 mb 0.00 in0.0 mm 0.00 in/hr0.0 mm/hr 0.00 in0.0 mm
08:00 PM 15.3°F-9.3°C -2.7°F-19.3°C 44% 0.2 mph SW0.3 kmh SW 2.2 mph3.5 kmh 30.42 in1030.1 mb 0.00 in0.0 mm 0.00 in/hr0.0 mm/hr 0.00 in0.0 mm
07:50 PM 15.3°F-9.3°C -2.7°F-19.3°C 44% 0.6 mph ENE1.0 kmh ENE 3.1 mph5.0 kmh 30.42 in1030.1 mb 0.00 in0.0 mm 0.00 in/hr0.0 mm/hr 0.00 in0.0 mm
07:40 PM 15.4°F-9.2°C -2.5°F-19.2°C 44% 0.9 mph WNW1.4 kmh WNW 4.5 mph7.2 kmh 30.41 in1029.8 mb 0.00 in0.0 mm 0.00 in/hr0.0 mm/hr 0.00 in0.0 mm
07:30 PM 15.4°F-9.2°C -3.0°F-19.4°C 43% 0.7 mph ENE1.1 kmh ENE 5.4 mph8.7 kmh 30.40 in1029.5 mb 0.00 in0.0 mm 0.00 in/hr0.0 mm/hr 0.00 in0.0 mm
07:20 PM 15.6°F-9.1°C -2.8°F-19.3°C 43% 0.7 mph NE1.1 kmh NE 4.5 mph7.2 kmh 30.40 in1029.5 mb 0.00 in0.0 mm 0.00 in/hr0.0 mm/hr 0.00 in0.0 mm
07:10 PM 15.6°F-9.1°C -3.8°F-19.9°C 41% 1.3 mph WNW2.1 kmh WNW 4.5 mph7.2 kmh 30.40 in1029.5 mb 0.00 in0.0 mm 0.00 in/hr0.0 mm/hr 0.00 in0.0 mm
07:00 PM 15.6°F-9.1°C -3.3°F-19.6°C 42% 0.9 mph NW1.4 kmh NW 3.8 mph6.1 kmh 30.40 in1029.5 mb 0.00 in0.0 mm 0.00 in/hr0.0 mm/hr 0.00 in0.0 mm
06:50 PM 15.8°F-9.0°C -4.2°F-20.1°C 40% 0.7 mph WSW1.1 kmh WSW 5.4 mph8.7 kmh 30.39 in1029.1 mb 0.00 in0.0 mm 0.00 in/hr0.0 mm/hr 0.00 in0.0 mm
06:40 PM 15.8°F-9.0°C -4.2°F-20.1°C 40% 0.6 mph NW1.0 kmh NW 4.5 mph7.2 kmh 30.39 in1029.1 mb 0.00 in0.0 mm 0.00 in/hr0.0 mm/hr 0.00 in0.0 mm
06:30 PM 15.8°F-9.0°C -4.2°F-20.1°C 40% 0.9 mph NNW1.4 kmh NNW 6.0 mph9.7 kmh 30.38 in1028.8 mb 0.00 in0.0 mm 0.00 in/hr0.0 mm/hr 0.00 in0.0 mm
06:20 PM 16.0°F-8.9°C -4.5°F-20.3°C 39% 1.2 mph NNE1.9 kmh NNE 6.0 mph9.7 kmh 30.38 in1028.8 mb 0.00 in0.0 mm 0.00 in/hr0.0 mm/hr 0.00 in0.0 mm
06:10 PM 16.0°F-8.9°C -4.5°F-20.3°C 39% 1.3 mph NW2.1 kmh NW 5.4 mph8.7 kmh 30.38 in1028.8 mb 0.00 in0.0 mm 0.00 in/hr0.0 mm/hr 0.00 in0.0 mm
06:00 PM 16.2°F-8.8°C -3.8°F-19.9°C 40% 0.4 mph NNE0.6 kmh NNE 2.2 mph3.5 kmh 30.37 in1028.4 mb 0.00 in0.0 mm 0.00 in/hr0.0 mm/hr 0.00 in0.0 mm
05:50 PM 16.2°F-8.8°C -3.8°F-19.9°C 40% 0.5 mph S0.8 kmh S 3.1 mph5.0 kmh 30.36 in1028.1 mb 0.00 in0.0 mm 0.00 in/hr0.0 mm/hr 0.00 in0.0 mm
05:40 PM 16.3°F-8.7°C -4.2°F-20.1°C 39% 1.6 mph E2.6 kmh E 5.4 mph8.7 kmh 30.36 in1028.1 mb 0.00 in0.0 mm 0.00 in/hr0.0 mm/hr 0.00 in0.0 mm
05:30 PM 16.3°F-8.7°C -4.2°F-20.1°C 39% 0.7 mph SE1.1 kmh SE 3.8 mph6.1 kmh 30.35 in1027.8 mb 0.00 in0.0 mm 0.00 in/hr0.0 mm/hr 0.00 in0.0 mm
05:20 PM 16.5°F-8.6°C -4.0°F-20.0°C 39% 1.8 mph NW2.9 kmh NW 5.4 mph8.7 kmh 30.35 in1027.8 mb 0.00 in0.0 mm 0.00 in/hr0.0 mm/hr 0.00 in0.0 mm
05:10 PM 16.7°F-8.5°C -3.9°F-19.9°C 39% 1.3 mph SSE2.1 kmh SSE 7.6 mph12.2 kmh 30.34 in1027.4 mb 0.00 in0.0 mm 0.00 in/hr0.0 mm/hr 0.00 in0.0 mm
05:00 PM 16.9°F-8.4°C -3.2°F-19.6°C 40% 0.8 mph N1.3 kmh N 3.8 mph6.1 kmh 30.33 in1027.1 mb 0.00 in0.0 mm 0.00 in/hr0.0 mm/hr 0.00 in0.0 mm
04:50 PM 17.1°F-8.3°C -3.0°F-19.4°C 40% 0.7 mph N1.1 kmh N 3.8 mph6.1 kmh 30.34 in1027.4 mb 0.00 in0.0 mm 0.00 in/hr0.0 mm/hr 0.00 in0.0 mm
04:40 PM 17.2°F-8.2°C -2.9°F-19.4°C 40% 0.4 mph SSW0.6 kmh SSW 3.8 mph6.1 kmh 30.33 in1027.1 mb 0.00 in0.0 mm 0.00 in/hr0.0 mm/hr 0.00 in0.0 mm
04:30 PM 17.2°F-8.2°C -2.9°F-19.4°C 40% 0.4 mph SSE0.6 kmh SSE 3.1 mph5.0 kmh 30.32 in1026.8 mb 0.00 in0.0 mm 0.00 in/hr0.0 mm/hr 0.00 in0.0 mm
04:20 PM 17.1°F-8.3°C -3.5°F-19.7°C 39% 0.6 mph NE1.0 kmh NE 2.2 mph3.5 kmh 30.33 in1027.1 mb 0.00 in0.0 mm 0.00 in/hr0.0 mm/hr 0.00 in0.0 mm
04:10 PM 17.2°F-8.2°C -3.4°F-19.7°C 39% 0.6 mph SW1.0 kmh SW 3.1 mph5.0 kmh 30.31 in1026.4 mb 0.00 in0.0 mm 0.00 in/hr0.0 mm/hr 0.00 in0.0 mm
04:00 PM 17.2°F-8.2°C -2.9°F-19.4°C 40% 1.4 mph N2.3 kmh N 4.5 mph7.2 kmh 30.31 in1026.4 mb 0.00 in0.0 mm 0.00 in/hr0.0 mm/hr 0.00 in0.0 mm
03:50 PM 17.2°F-8.2°C -2.3°F-19.1°C 41% 0.8 mph WSW1.3 kmh WSW 3.1 mph5.0 kmh 30.29 in1025.7 mb 0.00 in0.0 mm 0.00 in/hr0.0 mm/hr 0.00 in0.0 mm
03:40 PM 17.2°F-8.2°C -2.9°F-19.4°C 40% 0.6 mph NE1.0 kmh NE 3.1 mph5.0 kmh 30.31 in1026.4 mb 0.00 in0.0 mm 0.00 in/hr0.0 mm/hr 0.00 in0.0 mm
03:30 PM 17.2°F-8.2°C -2.9°F-19.4°C 40% 0.8 mph SE1.3 kmh SE 3.1 mph5.0 kmh 30.30 in1026.1 mb 0.00 in0.0 mm 0.00 in/hr0.0 mm/hr 0.00 in0.0 mm
03:20 PM 17.1°F-8.3°C -3.5°F-19.7°C 39% 1.7 mph ESE2.7 kmh ESE 5.4 mph8.7 kmh 30.29 in1025.7 mb 0.00 in0.0 mm 0.00 in/hr0.0 mm/hr 0.00 in0.0 mm
03:10 PM 17.1°F-8.3°C -3.0°F-19.4°C 40% 0.5 mph NNW0.8 kmh NNW 1.6 mph2.6 kmh 30.28 in1025.4 mb 0.00 in0.0 mm 0.00 in/hr0.0 mm/hr 0.00 in0.0 mm
03:00 PM 17.4°F-8.1°C -1.2°F-18.4°C 43% 0.9 mph E1.4 kmh E 3.8 mph6.1 kmh 30.29 in1025.7 mb 0.00 in0.0 mm 0.00 in/hr0.0 mm/hr 0.00 in0.0 mm
02:50 PM 17.2°F-8.2°C -1.3°F-18.5°C 43% 1.4 mph WSW2.3 kmh WSW 6.0 mph9.7 kmh 30.29 in1025.7 mb 0.00 in0.0 mm 0.00 in/hr0.0 mm/hr 0.00 in0.0 mm
02:40 PM 17.2°F-8.2°C -0.4°F-18.0°C 45% 1.5 mph W2.4 kmh W 4.5 mph7.2 kmh 30.28 in1025.4 mb 0.00 in0.0 mm 0.00 in/hr0.0 mm/hr 0.00 in0.0 mm
02:30 PM 17.4°F-8.1°C 1.2°F-17.1°C 48% 1.1 mph SW1.8 kmh SW 4.5 mph7.2 kmh 30.28 in1025.4 mb 0.00 in0.0 mm 0.00 in/hr0.0 mm/hr 0.00 in0.0 mm
02:20 PM 17.2°F-8.2°C 1.4°F-17.0°C 49% 0.6 mph NE1.0 kmh NE 3.1 mph5.0 kmh 30.27 in1025.1 mb 0.00 in0.0 mm 0.00 in/hr0.0 mm/hr 0.00 in0.0 mm
02:10 PM 17.1°F-8.3°C 1.7°F-16.8°C 50% 0.6 mph NNE1.0 kmh NNE 3.8 mph6.1 kmh 30.27 in1025.1 mb 0.00 in0.0 mm 0.00 in/hr0.0 mm/hr 0.00 in0.0 mm
02:00 PM 16.7°F-8.5°C 1.4°F-17.0°C 50% 0.4 mph NW0.6 kmh NW 2.2 mph3.5 kmh 30.28 in1025.4 mb 0.00 in0.0 mm 0.00 in/hr0.0 mm/hr 0.00 in0.0 mm
01:50 PM 16.3°F-8.7°C 1.5°F-16.9°C 51% 1.6 mph W2.6 kmh W 6.0 mph9.7 kmh 30.29 in1025.7 mb 0.00 in0.0 mm 0.00 in/hr0.0 mm/hr 0.00 in0.0 mm
01:40 PM 16.3°F-8.7°C 1.5°F-16.9°C 51% 0.9 mph NW1.4 kmh NW 3.1 mph5.0 kmh 30.31 in1026.4 mb 0.00 in0.0 mm 0.00 in/hr0.0 mm/hr 0.00 in0.0 mm
01:30 PM 16.3°F-8.7°C 0.6°F-17.4°C 49% 1.1 mph NW1.8 kmh NW 5.4 mph8.7 kmh 30.30 in1026.1 mb 0.00 in0.0 mm 0.00 in/hr0.0 mm/hr 0.00 in0.0 mm
01:20 PM 17.1°F-8.3°C -1.0°F-18.3°C 44% 1.6 mph NNW2.6 kmh NNW 4.5 mph7.2 kmh 30.30 in1026.1 mb 0.00 in0.0 mm 0.00 in/hr0.0 mm/hr 0.00 in0.0 mm
01:10 PM 17.4°F-8.1°C -2.2°F-19.0°C 41% 1.7 mph E2.7 kmh E 5.4 mph8.7 kmh 30.28 in1025.4 mb 0.00 in0.0 mm 0.00 in/hr0.0 mm/hr 0.00 in0.0 mm
01:00 PM 17.6°F-8.0°C -2.0°F-18.9°C 41% 1.4 mph NW2.3 kmh NW 4.5 mph7.2 kmh 30.29 in1025.7 mb 0.00 in0.0 mm 0.00 in/hr0.0 mm/hr 0.00 in0.0 mm
12:50 PM 18.1°F-7.7°C 0.0°F-17.8°C 44% 0.9 mph WNW1.4 kmh WNW 5.4 mph8.7 kmh 30.28 in1025.4 mb 0.00 in0.0 mm 0.00 in/hr0.0 mm/hr 0.00 in0.0 mm
12:40 PM 18.0°F-7.8°C -1.2°F-18.4°C 42% 0.8 mph ESE1.3 kmh ESE 4.5 mph7.2 kmh 30.28 in1025.4 mb 0.00 in0.0 mm 0.00 in/hr0.0 mm/hr 0.00 in0.0 mm
12:30 PM 18.3°F-7.6°C -0.4°F-18.0°C 43% 0.6 mph SW1.0 kmh SW 4.5 mph7.2 kmh 30.29 in1025.7 mb 0.00 in0.0 mm 0.00 in/hr0.0 mm/hr 0.00 in0.0 mm
12:20 PM 18.3°F-7.6°C 0.1°F-17.7°C 44% 1.2 mph NW1.9 kmh NW 4.5 mph7.2 kmh 30.30 in1026.1 mb 0.00 in0.0 mm 0.00 in/hr0.0 mm/hr 0.00 in0.0 mm
12:10 PM 18.9°F-7.3°C 1.6°F-16.9°C 46% 0.6 mph SSE1.0 kmh SSE 5.4 mph8.7 kmh 30.29 in1025.7 mb 0.00 in0.0 mm 0.00 in/hr0.0 mm/hr 0.00 in0.0 mm
12:00 PM 18.1°F-7.7°C 0.4°F-17.6°C 45% 1.2 mph SSE1.9 kmh SSE 5.4 mph8.7 kmh 30.30 in1026.1 mb 0.00 in0.0 mm 0.00 in/hr0.0 mm/hr 0.00 in0.0 mm
11:50 AM 18.0°F-7.8°C 0.7°F-17.4°C 46% 1.6 mph W2.6 kmh W 6.0 mph9.7 kmh 30.31 in1026.4 mb 0.00 in0.0 mm 0.00 in/hr0.0 mm/hr 0.00 in0.0 mm
11:40 AM 18.0°F-7.8°C 2.1°F-16.6°C 49% 1.0 mph WSW1.6 kmh WSW 5.4 mph8.7 kmh 30.30 in1026.1 mb 0.00 in0.0 mm 0.00 in/hr0.0 mm/hr 0.00 in0.0 mm
11:30 AM 17.8°F-7.9°C 1.9°F-16.7°C 49% 0.8 mph SSW1.3 kmh SSW 4.5 mph7.2 kmh 30.30 in1026.1 mb 0.00 in0.0 mm 0.00 in/hr0.0 mm/hr 0.00 in0.0 mm
11:20 AM 17.6°F-8.0°C 1.8°F-16.8°C 49% 1.5 mph S2.4 kmh S 6.9 mph11.1 kmh 30.29 in1025.7 mb 0.00 in0.0 mm 0.00 in/hr0.0 mm/hr 0.00 in0.0 mm
11:10 AM 17.6°F-8.0°C 2.6°F-16.3°C 51% 0.7 mph NNE1.1 kmh NNE 6.0 mph9.7 kmh 30.27 in1025.1 mb 0.00 in0.0 mm 0.00 in/hr0.0 mm/hr 0.00 in0.0 mm
11:00 AM 17.6°F-8.0°C 3.4°F-15.9°C 53% 1.1 mph NNE1.8 kmh NNE 4.5 mph7.2 kmh 30.28 in1025.4 mb 0.00 in0.0 mm 0.00 in/hr0.0 mm/hr 0.00 in0.0 mm
10:50 AM 17.6°F-8.0°C 4.3°F-15.4°C 55% 1.5 mph NW2.4 kmh NW 4.5 mph7.2 kmh 30.27 in1025.1 mb 0.00 in0.0 mm 0.00 in/hr0.0 mm/hr 0.00 in0.0 mm
10:40 AM 18.0°F-7.8°C 6.5°F-14.2°C 60% 0.8 mph NW1.3 kmh NW 3.8 mph6.1 kmh 30.27 in1025.1 mb 0.00 in0.0 mm 0.00 in/hr0.0 mm/hr 0.00 in0.0 mm
10:30 AM 17.8°F-7.9°C 7.0°F-13.9°C 62% 0.6 mph NW1.0 kmh NW 3.8 mph6.1 kmh 30.26 in1024.7 mb 0.00 in0.0 mm 0.00 in/hr0.0 mm/hr 0.00 in0.0 mm
10:20 AM 17.6°F-8.0°C 6.9°F-13.9°C 62% 0.6 mph NNW1.0 kmh NNW 3.8 mph6.1 kmh 30.26 in1024.7 mb 0.00 in0.0 mm 0.00 in/hr0.0 mm/hr 0.00 in0.0 mm
10:10 AM 17.4°F-8.1°C 7.4°F-13.7°C 64% 0.6 mph WNW1.0 kmh WNW 3.1 mph5.0 kmh 30.27 in1025.1 mb 0.00 in0.0 mm 0.00 in/hr0.0 mm/hr 0.00 in0.0 mm
10:00 AM 17.2°F-8.2°C 7.6°F-13.6°C 65% 0.7 mph NE1.1 kmh NE 6.0 mph9.7 kmh 30.26 in1024.7 mb 0.00 in0.0 mm 0.00 in/hr0.0 mm/hr 0.00 in0.0 mm
09:50 AM 16.9°F-8.4°C 7.9°F-13.4°C 67% 0.8 mph NNW1.3 kmh NNW 3.1 mph5.0 kmh 30.28 in1025.4 mb 0.00 in0.0 mm 0.00 in/hr0.0 mm/hr 0.00 in0.0 mm
09:40 AM 16.7°F-8.5°C 8.4°F-13.1°C 69% 0.6 mph ESE1.0 kmh ESE 4.5 mph7.2 kmh 30.29 in1025.7 mb 0.00 in0.0 mm 0.00 in/hr0.0 mm/hr 0.00 in0.0 mm
09:30 AM 16.5°F-8.6°C 8.8°F-12.9°C 71% 1.5 mph NNE2.4 kmh NNE 9.2 mph14.8 kmh 30.28 in1025.4 mb 0.00 in0.0 mm 0.00 in/hr0.0 mm/hr 0.00 in0.0 mm
09:20 AM 16.5°F-8.6°C 9.1°F-12.7°C 72% Calm Calm 2.2 mph3.5 kmh 30.27 in1025.1 mb 0.00 in0.0 mm 0.00 in/hr0.0 mm/hr 0.00 in0.0 mm
09:10 AM 16.3°F-8.7°C 9.3°F-12.6°C 73% 0.3 mph NW0.5 kmh NW 4.5 mph7.2 kmh 30.28 in1025.4 mb 0.00 in0.0 mm 0.00 in/hr0.0 mm/hr 0.00 in0.0 mm
09:00 AM 16.3°F-8.7°C 9.3°F-12.6°C 73% 0.5 mph WSW0.8 kmh WSW 6.0 mph9.7 kmh 30.27 in1025.1 mb 0.00 in0.0 mm 0.00 in/hr0.0 mm/hr 0.00 in0.0 mm
08:50 AM 16.5°F-8.6°C 9.4°F-12.6°C 73% 0.5 mph NW0.8 kmh NW 3.8 mph6.1 kmh 30.27 in1025.1 mb 0.00 in0.0 mm 0.00 in/hr0.0 mm/hr 0.00 in0.0 mm
08:40 AM 16.7°F-8.5°C 9.3°F-12.6°C 72% 1.9 mph NE3.1 kmh NE 7.6 mph12.2 kmh 30.27 in1025.1 mb 0.00 in0.0 mm 0.00 in/hr0.0 mm/hr 0.00 in0.0 mm
08:30 AM 17.4°F-8.1°C 10.3°F-12.1°C 73% 2.0 mph NNW3.2 kmh NNW 6.9 mph11.1 kmh 30.25 in1024.4 mb 0.00 in0.0 mm 0.00 in/hr0.0 mm/hr 0.00 in0.0 mm
08:20 AM 18.3°F-7.6°C 10.9°F-11.7°C 72% 1.5 mph WNW2.4 kmh WNW 6.0 mph9.7 kmh 30.25 in1024.4 mb 0.00 in0.0 mm 0.00 in/hr0.0 mm/hr 0.00 in0.0 mm
08:10 AM 19.0°F-7.2°C 11.6°F-11.3°C 72% 1.8 mph NNW2.9 kmh NNW 5.4 mph8.7 kmh 30.24 in1024.0 mb 0.00 in0.0 mm 0.00 in/hr0.0 mm/hr 0.00 in0.0 mm
08:00 AM 19.4°F-7.0°C 13.1°F-10.5°C 76% 1.4 mph NE2.3 kmh NE 5.4 mph8.7 kmh 30.24 in1024.0 mb 0.00 in0.0 mm 0.00 in/hr0.0 mm/hr 0.00 in0.0 mm
07:50 AM 19.6°F-6.9°C 13.0°F-10.6°C 75% 1.3 mph NNW2.1 kmh NNW 7.6 mph12.2 kmh 30.23 in1023.7 mb 0.00 in0.0 mm 0.00 in/hr0.0 mm/hr 0.00 in0.0 mm
07:40 AM 19.9°F-6.7°C 13.3°F-10.4°C 75% 2.5 mph NNE4.0 kmh NNE 9.2 mph14.8 kmh 30.22 in1023.4 mb 0.00 in0.0 mm 0.00 in/hr0.0 mm/hr 0.00 in0.0 mm
07:30 AM 21.0°F-6.1°C 14.4°F-9.8°C 75% 1.8 mph NW2.9 kmh NW 7.6 mph12.2 kmh 30.21 in1023.0 mb 0.00 in0.0 mm 0.00 in/hr0.0 mm/hr 0.00 in0.0 mm
07:20 AM 22.1°F-5.5°C 15.4°F-9.2°C 75% 1.8 mph NW2.9 kmh NW 6.0 mph9.7 kmh 30.20 in1022.7 mb 0.00 in0.0 mm 0.00 in/hr0.0 mm/hr 0.00 in0.0 mm
07:10 AM 23.0°F-5.0°C 16.0°F-8.9°C 74% 2.1 mph WNW3.4 kmh WNW 3.8 mph6.1 kmh 30.19 in1022.4 mb 0.00 in0.0 mm 0.00 in/hr0.0 mm/hr 0.00 in0.0 mm
07:00 AM 23.7°F-4.6°C 16.7°F-8.5°C 74% 2.9 mph NNW4.7 kmh NNW 7.6 mph12.2 kmh 30.18 in1022.0 mb 0.00 in0.0 mm 0.00 in/hr0.0 mm/hr 0.00 in0.0 mm
06:50 AM 25.3°F-3.7°C 17.9°F-7.8°C 73% 1.5 mph NW2.4 kmh NW 7.6 mph12.2 kmh 30.17 in1021.7 mb 0.00 in0.0 mm 0.00 in/hr0.0 mm/hr 0.00 in0.0 mm
06:40 AM 26.4°F-3.1°C 18.7°F-7.4°C 72% 2.3 mph NW3.7 kmh NW 8.3 mph13.4 kmh 30.16 in1021.3 mb 0.00 in0.0 mm 0.00 in/hr0.0 mm/hr 0.00 in0.0 mm
06:30 AM 27.5°F-2.5°C 19.0°F-7.2°C 70% 1.7 mph SE2.7 kmh SE 4.5 mph7.2 kmh 30.15 in1021.0 mb 0.00 in0.0 mm 0.00 in/hr0.0 mm/hr 0.00 in0.0 mm
06:20 AM 27.7°F-2.4°C 19.5°F-6.9°C 71% 1.2 mph SE1.9 kmh SE 3.8 mph6.1 kmh 30.14 in1020.7 mb 0.00 in0.0 mm 0.00 in/hr0.0 mm/hr 0.00 in0.0 mm
06:10 AM 27.9°F-2.3°C 20.0°F-6.7°C 72% 2.1 mph NNE3.4 kmh NNE 7.6 mph12.2 kmh 30.14 in1020.7 mb 0.00 in0.0 mm 0.00 in/hr0.0 mm/hr 0.00 in0.0 mm
06:00 AM 28.2°F-2.1°C 20.7°F-6.3°C 73% 1.2 mph SE1.9 kmh SE 5.4 mph8.7 kmh 30.13 in1020.3 mb 0.00 in0.0 mm 0.00 in/hr0.0 mm/hr 0.00 in0.0 mm
05:50 AM 28.6°F-1.9°C 22.9°F-5.1°C 79% 2.1 mph WSW3.4 kmh WSW 5.4 mph8.7 kmh 30.11 in1019.6 mb 0.00 in0.0 mm 0.00 in/hr0.0 mm/hr 0.00 in0.0 mm
05:40 AM 28.9°F-1.7°C 23.6°F-4.7°C 80% 1.4 mph NNE2.3 kmh NNE 6.9 mph11.1 kmh 30.11 in1019.6 mb 0.00 in0.0 mm 0.00 in/hr0.0 mm/hr 0.00 in0.0 mm
05:30 AM 28.9°F-1.7°C 23.9°F-4.5°C 81% 1.8 mph E2.9 kmh E 11.4 mph18.3 kmh 30.09 in1019.0 mb 0.00 in0.0 mm 0.00 in/hr0.0 mm/hr 0.00 in0.0 mm
05:20 AM 29.1°F-1.6°C 23.7°F-4.6°C 80% 0.5 mph SE0.8 kmh SE 5.4 mph8.7 kmh 30.10 in1019.3 mb 0.00 in0.0 mm 0.00 in/hr0.0 mm/hr 0.00 in0.0 mm
05:10 AM 29.3°F-1.5°C 24.2°F-4.3°C 81% 0.7 mph SW1.1 kmh SW 4.5 mph7.2 kmh 30.09 in1019.0 mb 0.00 in0.0 mm 0.00 in/hr0.0 mm/hr 0.00 in0.0 mm
05:00 AM 29.3°F-1.5°C 24.8°F-4.0°C 83% 1.0 mph SSE1.6 kmh SSE 4.5 mph7.2 kmh 30.10 in1019.3 mb 0.00 in0.0 mm 0.00 in/hr0.0 mm/hr 0.00 in0.0 mm
04:50 AM 29.5°F-1.4°C 25.0°F-3.9°C 83% 0.7 mph SSE1.1 kmh SSE 3.8 mph6.1 kmh 30.09 in1019.0 mb 0.00 in0.0 mm 0.00 in/hr0.0 mm/hr 0.00 in0.0 mm
04:40 AM 29.7°F-1.3°C 25.7°F-3.5°C 85% 1.2 mph SSE1.9 kmh SSE 4.5 mph7.2 kmh 30.11 in1019.6 mb 0.00 in0.0 mm 0.00 in/hr0.0 mm/hr 0.00 in0.0 mm
04:30 AM 29.8°F-1.2°C 26.2°F-3.2°C 86% 2.0 mph N3.2 kmh N 6.0 mph9.7 kmh 30.10 in1019.3 mb 0.00 in0.0 mm 0.00 in/hr0.0 mm/hr 0.00 in0.0 mm
04:20 AM 30.0°F-1.1°C 26.9°F-2.8°C 88% 1.4 mph WNW2.3 kmh WNW 5.4 mph8.7 kmh 30.10 in1019.3 mb 0.00 in0.0 mm 0.00 in/hr0.0 mm/hr 0.00 in0.0 mm
04:10 AM 30.4°F-0.9°C 27.3°F-2.6°C 88% 2.1 mph W3.4 kmh W 8.3 mph13.4 kmh 30.09 in1019.0 mb 0.00 in0.0 mm 0.00 in/hr0.0 mm/hr 0.00 in0.0 mm
04:00 AM 30.7°F-0.7°C 28.2°F-2.1°C 90% 1.6 mph WSW2.6 kmh WSW 6.0 mph9.7 kmh 30.09 in1019.0 mb 0.00 in0.0 mm 0.00 in/hr0.0 mm/hr 0.00 in0.0 mm
03:50 AM 31.3°F-0.4°C 28.7°F-1.8°C 90% 0.8 mph ESE1.3 kmh ESE 3.8 mph6.1 kmh 30.08 in1018.6 mb 0.00 in0.0 mm 0.00 in/hr0.0 mm/hr 0.00 in0.0 mm
03:40 AM 31.5°F-0.3°C 29.2°F-1.6°C 91% 0.7 mph S1.1 kmh S 3.8 mph6.1 kmh 30.08 in1018.6 mb 0.00 in0.0 mm 0.00 in/hr0.0 mm/hr 0.00 in0.0 mm
03:30 AM 31.6°F-0.2°C 29.3°F-1.5°C 91% 0.1 mph W0.2 kmh W 2.2 mph3.5 kmh 30.06 in1017.9 mb 0.00 in0.0 mm 0.00 in/hr0.0 mm/hr 0.00 in0.0 mm
03:20 AM 31.6°F-0.2°C 29.1°F-1.6°C 90% 0.6 mph SW1.0 kmh SW 3.8 mph6.1 kmh 30.06 in1017.9 mb 0.00 in0.0 mm 0.00 in/hr0.0 mm/hr 0.00 in0.0 mm
03:10 AM 31.6°F-0.2°C 29.1°F-1.6°C 90% 0.1 mph W0.2 kmh W 3.1 mph5.0 kmh 30.05 in1017.6 mb 0.00 in0.0 mm 0.00 in/hr0.0 mm/hr 0.00 in0.0 mm
03:00 AM 31.6°F-0.2°C 29.1°F-1.6°C 90% 0.4 mph SSW0.6 kmh SSW 2.2 mph3.5 kmh 30.05 in1017.6 mb 0.00 in0.0 mm 0.00 in/hr0.0 mm/hr 0.00 in0.0 mm
02:50 AM 31.6°F-0.2°C 29.1°F-1.6°C 90% 0.1 mph SSW0.2 kmh SSW 2.2 mph3.5 kmh 30.05 in1017.6 mb 0.00 in0.0 mm 0.00 in/hr0.0 mm/hr 0.00 in0.0 mm
02:40 AM 31.6°F-0.2°C 29.1°F-1.6°C 90% 0.4 mph WSW0.6 kmh WSW 3.1 mph5.0 kmh 30.06 in1017.9 mb 0.00 in0.0 mm 0.00 in/hr0.0 mm/hr 0.00 in0.0 mm
02:30 AM 31.8°F-0.1°C 29.2°F-1.6°C 90% 0.5 mph WSW0.8 kmh WSW 2.2 mph3.5 kmh 30.06 in1017.9 mb 0.00 in0.0 mm 0.00 in/hr0.0 mm/hr 0.00 in0.0 mm
02:20 AM 31.8°F-0.1°C 29.2°F-1.6°C 90% 0.6 mph WSW1.0 kmh WSW 3.1 mph5.0 kmh 30.07 in1018.3 mb 0.00 in0.0 mm 0.00 in/hr0.0 mm/hr 0.00 in0.0 mm
02:10 AM 32.0°F0.0°C 29.1°F-1.6°C 89% 0.3 mph S0.5 kmh S 2.2 mph3.5 kmh 30.07 in1018.3 mb 0.00 in0.0 mm 0.00 in/hr0.0 mm/hr 0.00 in0.0 mm
02:00 AM 32.0°F0.0°C 29.1°F-1.6°C 89% 0.2 mph WSW0.3 kmh WSW 2.2 mph3.5 kmh 30.07 in1018.3 mb 0.00 in0.0 mm 0.00 in/hr0.0 mm/hr 0.00 in0.0 mm
01:50 AM 32.0°F0.0°C 29.1°F-1.6°C 89% Calm Calm 1.6 mph2.6 kmh 30.07 in1018.3 mb 0.00 in0.0 mm 0.00 in/hr0.0 mm/hr 0.00 in0.0 mm
01:40 AM 32.0°F0.0°C 28.9°F-1.7°C 88% 1.1 mph NE1.8 kmh NE 5.4 mph8.7 kmh 30.06 in1017.9 mb 0.00 in0.0 mm 0.00 in/hr0.0 mm/hr 0.00 in0.0 mm
01:30 AM 32.0°F0.0°C 28.9°F-1.7°C 88% 0.3 mph S0.5 kmh S 3.1 mph5.0 kmh 30.06 in1017.9 mb 0.00 in0.0 mm 0.00 in/hr0.0 mm/hr 0.00 in0.0 mm
01:20 AM 32.2°F0.1°C 29.0°F-1.7°C 88% 0.4 mph SW0.6 kmh SW 3.1 mph5.0 kmh 30.06 in1017.9 mb 0.00 in0.0 mm 0.00 in/hr0.0 mm/hr 0.00 in0.0 mm
01:10 AM 32.2°F0.1°C 29.0°F-1.7°C 88% 0.2 mph N0.3 kmh N 3.8 mph6.1 kmh 30.06 in1017.9 mb 0.00 in0.0 mm 0.00 in/hr0.0 mm/hr 0.00 in0.0 mm
01:00 AM 32.2°F0.1°C 29.0°F-1.7°C 88% 0.8 mph WNW1.3 kmh WNW 4.5 mph7.2 kmh 30.06 in1017.9 mb 0.00 in0.0 mm 0.00 in/hr0.0 mm/hr 0.00 in0.0 mm
12:50 AM 32.4°F0.2°C 29.2°F-1.6°C 88% 0.6 mph WSW1.0 kmh WSW 3.1 mph5.0 kmh 30.06 in1017.9 mb 0.00 in0.0 mm 0.00 in/hr0.0 mm/hr 0.00 in0.0 mm
12:40 AM 32.4°F0.2°C 28.9°F-1.7°C 87% 0.4 mph WSW0.6 kmh WSW 2.2 mph3.5 kmh 30.05 in1017.6 mb 0.00 in0.0 mm 0.00 in/hr0.0 mm/hr 0.00 in0.0 mm
12:30 AM 32.5°F0.3°C 29.1°F-1.6°C 87% 0.5 mph WNW0.8 kmh WNW 6.0 mph9.7 kmh 30.05 in1017.6 mb 0.00 in0.0 mm 0.00 in/hr0.0 mm/hr 0.00 in0.0 mm
12:20 AM 32.5°F0.3°C 29.1°F-1.6°C 87% 0.3 mph SW0.5 kmh SW 6.0 mph9.7 kmh 30.05 in1017.6 mb 0.00 in0.0 mm 0.00 in/hr0.0 mm/hr 0.00 in0.0 mm
12:10 AM 32.5°F0.3°C 29.1°F-1.6°C 87% 0.4 mph W0.6 kmh W 2.2 mph3.5 kmh 30.05 in1017.6 mb 0.00 in0.0 mm 0.00 in/hr0.0 mm/hr 0.00 in0.0 mm
12:00 AM 32.5°F0.3°C 29.1°F-1.6°C 87% 0.2 mph SW0.3 kmh SW 2.2 mph3.5 kmh 30.06 in1017.9 mb 0.00 in0.0 mm 0.00 in/hr0.0 mm/hr 0.00 in0.0 mm